Time;durP1;ratioP1;P1;durP2;ratioP2;P2;SDS_P1;SDS_P2;PMS_P1;PMS_P2;Temp;Humidity;BMP_temperature;BMP_pressure;BME280_temperature;BME280_humidity;BME280_pressure;Samples;Min_cycle;Max_cycle;Signal;HPM_P1;HPM_P2
2022/10/22 00:00:13;;;;;;;0.50;0.30;;;12.60;92.30;;;;;;6152835;23;20014;-81
2022/10/22 00:02:40;;;;;;;0.70;0.50;;;12.70;92.30;;;;;;6126231;23;20044;-81
2022/10/22 00:05:06;;;;;;;0.25;0.20;;;12.60;92.30;;;;;;6126558;23;20005;-81
2022/10/22 00:07:32;;;;;;;0.52;0.40;;;12.70;92.30;;;;;;6102566;23;20017;-81
2022/10/22 00:09:58;;;;;;;0.82;0.50;;;12.60;92.30;;;;;;6102898;23;20001;-81
2022/10/22 00:12:23;;;;;;;0.40;0.40;;;12.50;92.30;;;;;;6126871;23;20021;-81
2022/10/22 00:14:49;;;;;;;0.43;0.40;;;12.50;92.30;;;;;;6153267;23;20009;-81
2022/10/22 00:17:15;;;;;;;0.70;0.38;;;12.50;92.30;;;;;;6152954;23;20005;-81
2022/10/22 00:19:41;;;;;;;0.40;0.35;;;12.50;92.30;;;;;;6126548;23;20009;-81
2022/10/22 00:22:08;;;;;;;0.30;0.30;;;12.50;92.30;;;;;;6102310;23;20008;-81
2022/10/22 00:24:37;;;;;;;0.50;0.47;;;12.50;92.30;;;;;;6126756;23;20379;-81
2022/10/22 00:27:04;;;;;;;0.30;0.30;;;12.40;92.30;;;;;;6103477;23;20028;-81
2022/10/22 00:29:29;;;;;;;0.60;0.52;;;12.40;92.30;;;;;;6102579;23;20014;-81
2022/10/22 00:31:55;;;;;;;0.30;0.30;;;12.40;92.30;;;;;;6102074;23;20017;-81
2022/10/22 00:34:22;;;;;;;0.50;0.40;;;12.40;92.30;;;;;;6126969;23;20025;-81
2022/10/22 00:36:49;;;;;;;0.35;0.35;;;12.40;92.50;;;;;;6153194;23;20025;-81
2022/10/22 00:39:17;;;;;;;0.47;0.40;;;12.50;92.30;;;;;;6126645;23;20017;-81
2022/10/22 00:41:44;;;;;;;0.50;0.50;;;12.40;92.30;;;;;;6152421;23;20014;-81
2022/10/22 00:44:43;;;;;;;0.75;0.50;;;12.40;92.20;;;;;;6099847;23;20037;-81
2022/10/22 00:47:10;;;;;;;0.35;0.35;;;12.40;92.20;;;;;;6126427;23;20412;-81
2022/10/22 00:49:35;;;;;;;0.95;0.35;;;12.40;92.20;;;;;;6126633;23;20084;-81
2022/10/22 00:52:01;;;;;;;0.50;0.40;;;12.40;92.20;;;;;;6126243;23;20067;-81
2022/10/22 00:54:27;;;;;;;0.30;0.30;;;12.40;92.20;;;;;;6152804;23;19997;-81
2022/10/22 00:56:52;;;;;;;0.30;0.30;;;12.40;92.20;;;;;;6102424;23;20091;-81
2022/10/22 00:59:18;;;;;;;0.50;0.50;;;12.40;92.20;;;;;;6102189;23;20006;-81
2022/10/22 01:01:45;;;;;;;0.40;0.40;;;12.40;92.20;;;;;;6127019;23;20090;-81
2022/10/22 01:04:11;;;;;;;0.70;0.50;;;12.30;92.20;;;;;;6127013;23;20342;-81
2022/10/22 01:06:37;;;;;;;0.30;0.30;;;12.40;92.20;;;;;;6153058;23;20002;-81
2022/10/22 01:09:15;;;;;;;0.55;0.40;;;12.40;92.20;;;;;;6152160;23;20024;-80
2022/10/22 01:12:01;;;;;;;0.40;0.40;;;12.40;92.20;;;;;;6126653;23;20568;-81
2022/10/22 01:14:39;;;;;;;0.63;0.50;;;12.40;92.20;;;;;;6126255;23;20001;-81
2022/10/22 01:17:28;;;;;;;0.40;0.32;;;12.30;92.20;;;;;;6128112;23;20025;-81
2022/10/22 01:20:18;;;;;;;0.50;0.40;;;12.50;92.20;;;;;;6106248;23;20013;-81
2022/10/22 01:23:12;;;;;;;0.40;0.40;;;12.30;92.20;;;;;;6126370;23;20058;-81
2022/10/22 01:25:49;;;;;;;0.30;0.30;;;12.20;92.20;;;;;;6126726;23;20010;-81
2022/10/22 01:28:36;;;;;;;0.75;0.47;;;12.20;92.20;;;;;;6128143;23;20013;-81
2022/10/22 01:31:04;;;;;;;0.50;0.50;;;12.20;92.20;;;;;;6125910;23;20051;-81
2022/10/22 01:33:31;;;;;;;0.40;0.40;;;12.10;92.20;;;;;;6126835;23;20077;-80
2022/10/22 01:35:58;;;;;;;1.83;0.50;;;12.10;92.30;;;;;;6101894;23;20322;-81
2022/10/22 01:38:25;;;;;;;0.32;0.32;;;12.10;92.20;;;;;;6126266;23;20009;-81
2022/10/22 01:40:52;;;;;;;0.38;0.38;;;12.10;92.30;;;;;;6152493;23;20033;-81
2022/10/22 01:43:18;;;;;;;0.75;0.60;;;12.00;92.30;;;;;;6152412;23;20017;-81
2022/10/22 01:45:50;;;;;;;0.50;0.50;;;12.00;92.30;;;;;;6152544;23;20434;-81
2022/10/22 01:48:52;;;;;;;0.40;0.40;;;12.00;92.30;;;;;;6101728;23;20022;-81
2022/10/22 01:51:30;;;;;;;0.68;0.50;;;12.00;92.40;;;;;;6125990;23;20417;-81
2022/10/22 01:54:18;;;;;;;0.60;0.38;;;12.00;92.40;;;;;;6079235;23;20032;-81
2022/10/22 01:57:18;;;;;;;0.50;0.40;;;11.90;92.30;;;;;;6152937;23;19997;-81
2022/10/22 01:59:56;;;;;;;0.40;0.40;;;11.80;92.30;;;;;;6151973;23;20061;-81
2022/10/22 02:02:57;;;;;;;0.30;0.30;;;11.80;92.30;;;;;;6103098;23;20002;-81
2022/10/22 02:05:29;;;;;;;0.50;0.40;;;11.80;92.40;;;;;;6152365;23;20001;-81
2022/10/22 02:08:03;;;;;;;0.40;0.40;;;11.70;92.40;;;;;;6152731;23;20096;-81
2022/10/22 02:10:30;;;;;;;0.32;0.30;;;11.80;92.40;;;;;;6152393;23;20002;-80
2022/10/22 02:12:57;;;;;;;0.38;0.32;;;11.70;92.40;;;;;;6152922;23;20091;-80
2022/10/22 02:15:26;;;;;;;0.35;0.32;;;11.80;92.50;;;;;;6113928;23;20017;-80
2022/10/22 02:17:54;;;;;;;0.80;0.40;;;11.70;92.40;;;;;;6102636;23;20343;-81
2022/10/22 02:20:28;;;;;;;0.45;0.40;;;11.70;92.40;;;;;;6126232;23;20006;-81
2022/10/22 02:22:54;;;;;;;0.70;0.40;;;11.60;92.40;;;;;;6126173;23;20009;-81
2022/10/22 02:25:28;;;;;;;0.60;0.60;;;11.70;92.50;;;;;;6102541;23;19997;-81
2022/10/22 02:28:10;;;;;;;1.33;0.60;;;11.60;92.50;;;;;;6103213;23;20433;-81
2022/10/22 02:30:38;;;;;;;0.60;0.40;;;11.60;92.50;;;;;;6127674;23;20001;-80
2022/10/22 02:33:16;;;;;;;0.40;0.40;;;11.60;92.50;;;;;;6127597;23;20375;-80
2022/10/22 02:35:43;;;;;;;0.55;0.40;;;11.70;92.50;;;;;;6103183;23;20052;-80
2022/10/22 02:38:10;;;;;;;0.30;0.30;;;11.60;92.40;;;;;;6128191;23;20068;-80
2022/10/22 02:40:36;;;;;;;0.90;0.60;;;11.60;92.40;;;;;;6103330;23;20422;-80
2022/10/22 02:43:04;;;;;;;0.70;0.70;;;11.60;92.40;;;;;;6154368;23;20002;-80
2022/10/22 02:45:30;;;;;;;0.57;0.57;;;11.60;92.40;;;;;;6127722;23;20439;-80
2022/10/22 02:47:56;;;;;;;0.98;0.60;;;11.60;92.40;;;;;;6127288;23;20036;-80
2022/10/22 02:50:22;;;;;;;0.47;0.38;;;11.60;92.40;;;;;;6127441;23;20088;-80
2022/10/22 02:52:47;;;;;;;0.50;0.50;;;11.60;92.50;;;;;;6153598;23;20004;-80
2022/10/22 02:55:13;;;;;;;0.50;0.50;;;11.60;92.40;;;;;;6153455;23;20006;-80
2022/10/22 02:57:39;;;;;;;0.57;0.57;;;11.50;92.40;;;;;;6103406;23;20006;-80
2022/10/22 03:00:07;;;;;;;0.70;0.60;;;11.60;92.40;;;;;;6127580;23;20053;-80
2022/10/22 03:02:33;;;;;;;1.70;0.65;;;11.60;92.40;;;;;;6127550;23;20002;-80
2022/10/22 03:04:59;;;;;;;0.40;0.40;;;11.60;92.40;;;;;;6154001;23;20009;-81
2022/10/22 03:07:25;;;;;;;0.60;0.60;;;11.60;92.30;;;;;;6127194;23;20359;-80
2022/10/22 03:09:50;;;;;;;1.60;0.63;;;11.60;92.30;;;;;;6153276;23;19997;-80
2022/10/22 03:12:16;;;;;;;0.98;0.60;;;11.60;92.30;;;;;;6103926;23;20001;-80
2022/10/22 03:14:42;;;;;;;0.55;0.55;;;11.50;92.40;;;;;;6127804;23;20021;-80
2022/10/22 03:17:08;;;;;;;1.48;0.57;;;11.50;92.40;;;;;;6079477;23;20013;-80
2022/10/22 03:19:34;;;;;;;0.50;0.50;;;11.50;92.30;;;;;;6127829;23;20311;-80
2022/10/22 03:22:06;;;;;;;0.40;0.40;;;11.50;92.40;;;;;;6127614;23;20012;-80
2022/10/22 03:24:40;;;;;;;0.50;0.50;;;11.50;92.30;;;;;;6153847;23;20005;-80
2022/10/22 03:27:06;;;;;;;0.95;0.63;;;11.50;92.40;;;;;;6129355;23;20033;-80
2022/10/22 03:29:35;;;;;;;0.75;0.40;;;11.60;92.40;;;;;;6127937;23;20016;-80
2022/10/22 03:32:01;;;;;;;0.70;0.60;;;11.50;92.60;;;;;;6097190;23;20017;-80
2022/10/22 03:34:27;;;;;;;0.40;0.40;;;11.50;92.30;;;;;;6080969;23;20003;-80
2022/10/22 03:36:55;;;;;;;0.52;0.52;;;11.50;92.40;;;;;;6127723;23;20081;-80
2022/10/22 03:39:21;;;;;;;0.47;0.38;;;11.50;92.40;;;;;;6128728;23;20019;-80
2022/10/22 03:41:49;;;;;;;0.90;0.70;;;11.40;92.40;;;;;;6154161;23;20005;-80
2022/10/22 03:44:16;;;;;;;0.43;0.43;;;11.50;92.40;;;;;;6127567;23;20058;-80
2022/10/22 03:46:42;;;;;;;0.40;0.40;;;11.50;92.40;;;;;;6102591;23;20198;-80
2022/10/22 03:49:08;;;;;;;0.52;0.50;;;11.50;92.40;;;;;;6154098;23;20041;-80
2022/10/22 03:51:34;;;;;;;0.98;0.75;;;11.50;92.40;;;;;;6128103;23;19998;-80
2022/10/22 03:54:01;;;;;;;0.93;0.70;;;11.50;92.50;;;;;;6127336;23;20005;-80
2022/10/22 03:56:26;;;;;;;0.60;0.57;;;11.50;92.40;;;;;;6127475;23;19998;-80
2022/10/22 03:58:57;;;;;;;0.50;0.50;;;11.50;92.40;;;;;;6153617;23;20064;-80
2022/10/22 04:01:23;;;;;;;0.37;0.37;;;11.50;92.30;;;;;;6154093;23;20013;-80
2022/10/22 04:03:49;;;;;;;0.52;0.40;;;11.50;92.30;;;;;;6128482;23;20032;-80
2022/10/22 04:06:15;;;;;;;0.40;0.40;;;11.50;92.40;;;;;;6103190;23;20084;-80
2022/10/22 04:08:42;;;;;;;0.70;0.50;;;11.50;92.40;;;;;;6103106;23;20338;-80
2022/10/22 04:11:09;;;;;;;0.40;0.40;;;11.60;92.40;;;;;;6103709;23;20378;-80
2022/10/22 04:13:36;;;;;;;0.70;0.40;;;11.60;92.50;;;;;;6127594;23;20179;-80
2022/10/22 04:16:20;;;;;;;0.52;0.40;;;11.60;92.40;;;;;;6153955;23;20322;-80
2022/10/22 04:18:47;;;;;;;0.35;0.32;;;11.70;92.40;;;;;;6128068;23;20016;-79
2022/10/22 04:21:14;;;;;;;0.43;0.43;;;11.80;92.40;;;;;;6128121;23;20001;-79
2022/10/22 04:23:52;;;;;;;0.32;0.30;;;12.00;92.30;;;;;;6100865;23;20427;-79
2022/10/22 04:26:19;;;;;;;1.08;0.43;;;12.20;92.20;;;;;;6102931;23;20012;-79
2022/10/22 04:28:46;;;;;;;0.40;0.40;;;12.40;92.00;;;;;;6153543;23;20438;-79
2022/10/22 04:31:15;;;;;;;0.60;0.40;;;12.50;91.80;;;;;;6127906;23;20056;-80
2022/10/22 04:33:41;;;;;;;0.50;0.50;;;12.60;91.70;;;;;;6154209;23;20005;-80
2022/10/22 04:36:12;;;;;;;0.50;0.40;;;12.60;91.70;;;;;;6128194;23;20006;-79
2022/10/22 04:38:38;;;;;;;0.35;0.30;;;12.60;91.70;;;;;;6154148;23;20002;-79
2022/10/22 04:41:14;;;;;;;0.30;0.30;;;12.70;91.70;;;;;;6103186;23;20005;-80
2022/10/22 04:43:41;;;;;;;0.50;0.40;;;12.80;91.80;;;;;;6153838;23;20001;-80
2022/10/22 04:46:08;;;;;;;0.40;0.40;;;12.60;91.70;;;;;;6128797;23;20017;-80
2022/10/22 04:48:35;;;;;;;0.50;0.50;;;12.60;91.80;;;;;;6128349;23;20096;-79
2022/10/22 04:51:01;;;;;;;1.05;0.40;;;12.70;91.90;;;;;;6103937;23;19998;-80
2022/10/22 04:53:27;;;;;;;0.50;0.30;;;12.80;91.80;;;;;;6154614;23;20029;-79
2022/10/22 04:55:53;;;;;;;1.08;0.73;;;12.80;91.80;;;;;;6154304;23;20009;-79
2022/10/22 04:58:19;;;;;;;0.88;0.55;;;12.80;91.80;;;;;;6153377;23;20500;-79
2022/10/22 05:00:44;;;;;;;0.57;0.57;;;12.80;91.80;;;;;;6127177;23;20088;-79
2022/10/22 05:03:10;;;;;;;0.60;0.60;;;12.90;91.80;;;;;;6127426;23;20005;-80
2022/10/22 05:05:36;;;;;;;0.50;0.50;;;13.00;91.80;;;;;;6102822;23;20029;-80
2022/10/22 05:08:02;;;;;;;0.40;0.40;;;13.00;91.80;;;;;;6153251;23;20013;-79
2022/10/22 05:10:27;;;;;;;0.77;0.68;;;12.90;91.80;;;;;;6127924;23;20001;-80
2022/10/22 05:12:53;;;;;;;0.98;0.52;;;13.00;91.90;;;;;;6087906;23;20005;-80
2022/10/22 05:15:19;;;;;;;0.60;0.57;;;13.00;91.80;;;;;;6113528;23;20077;-79
2022/10/22 05:17:45;;;;;;;1.08;0.60;;;12.90;91.80;;;;;;6127471;23;20438;-80
2022/10/22 05:20:10;;;;;;;1.35;0.57;;;13.00;91.90;;;;;;6127197;23;20004;-79
2022/10/22 05:22:37;;;;;;;1.05;0.63;;;13.00;91.90;;;;;;6153277;23;20418;-79
2022/10/22 05:25:03;;;;;;;1.08;0.60;;;13.10;91.90;;;;;;6127164;23;20362;-79
2022/10/22 05:27:29;;;;;;;0.75;0.50;;;13.10;91.90;;;;;;6153085;23;20055;-80
2022/10/22 05:29:55;;;;;;;0.95;0.50;;;13.10;91.80;;;;;;6078779;23;20092;-79
2022/10/22 05:32:20;;;;;;;1.10;0.70;;;13.10;91.80;;;;;;6102748;23;20001;-79
2022/10/22 05:34:46;;;;;;;1.23;0.55;;;13.20;91.90;;;;;;6153355;23;20064;-79
2022/10/22 05:37:12;;;;;;;1.25;0.80;;;13.20;91.80;;;;;;6155475;23;20001;-79
2022/10/22 05:39:39;;;;;;;1.25;0.65;;;13.20;91.80;;;;;;6152970;23;20028;-79
2022/10/22 05:42:05;;;;;;;2.92;0.70;;;13.30;91.80;;;;;;6098560;23;20094;-79
2022/10/22 05:44:31;;;;;;;3.20;0.70;;;13.30;91.70;;;;;;6154327;23;20031;-79
2022/10/22 05:46:56;;;;;;;1.30;0.70;;;13.30;91.80;;;;;;6127721;23;20334;-79
2022/10/22 05:49:22;;;;;;;0.75;0.50;;;13.40;91.80;;;;;;6078544;23;20010;-79
2022/10/22 05:51:48;;;;;;;0.85;0.60;;;13.40;91.80;;;;;;6126691;23;20081;-79
2022/10/22 05:54:18;;;;;;;1.00;0.70;;;13.40;91.80;;;;;;6101134;23;20075;-80
2022/10/22 05:56:45;;;;;;;1.60;0.63;;;13.30;91.80;;;;;;6153488;23;20004;-79
2022/10/22 05:59:11;;;;;;;0.85;0.60;;;13.40;91.80;;;;;;6153200;23;20059;-79
2022/10/22 06:01:38;;;;;;;1.90;0.70;;;13.40;91.90;;;;;;6154556;23;20088;-79
2022/10/22 06:04:07;;;;;;;0.80;0.50;;;13.40;91.80;;;;;;6128864;23;20018;-79
2022/10/22 06:06:45;;;;;;;0.80;0.70;;;13.40;91.80;;;;;;6127813;23;20435;-80
2022/10/22 06:09:33;;;;;;;1.70;0.70;;;13.50;91.90;;;;;;6128092;23;20092;-80
2022/10/22 06:11:59;;;;;;;1.35;0.68;;;13.40;91.80;;;;;;6134058;23;20005;-80
2022/10/22 06:14:25;;;;;;;1.25;0.70;;;13.50;91.80;;;;;;6128932;23;20113;-79
2022/10/22 06:16:52;;;;;;;1.02;0.68;;;13.50;91.90;;;;;;6128385;23;20006;-80
2022/10/22 06:19:20;;;;;;;0.80;0.70;;;13.60;91.90;;;;;;6128787;23;20010;-79
2022/10/22 06:21:47;;;;;;;1.63;0.60;;;13.50;91.80;;;;;;6156116;23;20029;-79
2022/10/22 06:24:13;;;;;;;1.08;0.68;;;13.60;91.90;;;;;;6127975;23;20087;-80
2022/10/22 06:26:39;;;;;;;2.67;0.80;;;13.60;91.80;;;;;;6128473;23;20006;-80
2022/10/22 06:29:05;;;;;;;0.82;0.52;;;13.60;91.80;;;;;;6103563;23;20017;-80
2022/10/22 06:31:35;;;;;;;1.15;0.75;;;13.70;91.80;;;;;;6128071;23;21185;-80
2022/10/22 06:34:03;;;;;;;1.15;0.60;;;13.60;91.80;;;;;;6105065;23;20006;-79
2022/10/22 06:36:29;;;;;;;0.82;0.60;;;13.70;91.80;;;;;;6155450;23;20025;-80
2022/10/22 06:38:55;;;;;;;2.42;1.00;;;13.70;91.80;;;;;;6155468;23;20407;-79
2022/10/22 06:41:22;;;;;;;1.38;0.73;;;13.80;91.80;;;;;;6079442;23;20005;-80
2022/10/22 06:43:47;;;;;;;1.83;0.60;;;13.70;91.80;;;;;;6154106;23;20382;-80
2022/10/22 06:46:16;;;;;;;1.77;0.70;;;13.80;91.80;;;;;;6128569;23;20002;-79
2022/10/22 06:48:42;;;;;;;1.33;0.70;;;13.70;91.80;;;;;;6129122;23;20010;-80
2022/10/22 06:51:10;;;;;;;1.10;0.70;;;13.80;91.80;;;;;;6071045;23;20822;-80
2022/10/22 06:53:38;;;;;;;1.48;0.65;;;13.80;91.80;;;;;;6128026;23;20002;-79
2022/10/22 06:56:05;;;;;;;1.27;0.50;;;13.80;91.80;;;;;;6155124;23;20391;-79
2022/10/22 06:58:31;;;;;;;0.73;0.70;;;13.80;91.90;;;;;;6155096;23;20006;-80
2022/10/22 07:01:07;;;;;;;1.23;0.70;;;13.80;91.90;;;;;;6153906;23;20304;-80
2022/10/22 07:03:34;;;;;;;0.55;0.55;;;13.80;91.90;;;;;;6128964;23;20005;-81
2022/10/22 07:06:01;;;;;;;0.77;0.60;;;13.80;91.90;;;;;;6103890;23;20037;-80
2022/10/22 07:08:27;;;;;;;0.75;0.70;;;13.80;91.90;;;;;;6127928;23;20383;-80
2022/10/22 07:10:54;;;;;;;1.10;0.73;;;13.90;91.90;;;;;;6103321;23;20017;-79
2022/10/22 07:13:20;;;;;;;1.05;0.75;;;13.80;91.90;;;;;;6127825;23;20001;-80
2022/10/22 07:15:52;;;;;;;1.00;0.77;;;13.90;91.90;;;;;;6155270;23;20005;-80
2022/10/22 07:18:18;;;;;;;0.80;0.80;;;14.00;91.80;;;;;;6154615;23;20006;-80
2022/10/22 07:20:43;;;;;;;1.95;0.90;;;14.00;91.70;;;;;;6072408;23;20514;-80
2022/10/22 07:23:09;;;;;;;2.72;1.08;;;14.00;91.70;;;;;;6129423;23;20013;-80
2022/10/22 07:25:35;;;;;;;2.30;1.35;;;14.10;91.70;;;;;;6154425;23;20012;-80
2022/10/22 07:28:01;;;;;;;1.23;0.82;;;14.10;91.70;;;;;;6153967;23;20013;-80
2022/10/22 07:30:26;;;;;;;0.80;0.80;;;14.20;91.70;;;;;;6153771;23;20025;-80
2022/10/22 07:32:52;;;;;;;1.10;0.75;;;14.20;91.60;;;;;;6128459;23;20434;-80
2022/10/22 07:35:18;;;;;;;1.85;0.77;;;14.20;91.60;;;;;;6127681;23;20009;-80
2022/10/22 07:37:44;;;;;;;1.50;1.00;;;14.40;91.70;;;;;;6128686;23;20092;-80
2022/10/22 07:40:10;;;;;;;2.28;0.73;;;14.30;91.60;;;;;;6130350;23;20002;-80
2022/10/22 07:42:36;;;;;;;1.10;0.70;;;14.40;91.60;;;;;;6127725;23;20010;-80
2022/10/22 07:45:02;;;;;;;1.52;0.75;;;14.40;91.60;;;;;;6127896;23;20072;-81
2022/10/22 07:47:27;;;;;;;1.63;0.90;;;14.40;91.60;;;;;;6103661;23;20500;-80
2022/10/22 07:49:53;;;;;;;1.50;0.68;;;14.50;91.60;;;;;;6128095;23;20013;-79
2022/10/22 07:52:19;;;;;;;0.98;0.70;;;14.50;91.60;;;;;;6127711;23;19998;-81
2022/10/22 07:54:45;;;;;;;1.02;0.70;;;14.50;91.50;;;;;;6154650;23;20018;-81
2022/10/22 07:57:10;;;;;;;2.20;0.98;;;14.50;91.50;;;;;;6103616;23;20006;-80
2022/10/22 07:59:36;;;;;;;1.83;0.90;;;14.50;91.50;;;;;;6154673;23;20131;-81
2022/10/22 08:02:03;;;;;;;1.10;0.60;;;14.50;91.60;;;;;;6127409;23;20034;-81
2022/10/22 08:04:28;;;;;;;2.05;0.90;;;14.50;91.50;;;;;;6103597;23;20006;-80
2022/10/22 08:06:57;;;;;;;1.67;0.82;;;14.60;91.60;;;;;;6154146;23;20461;-81
2022/10/22 08:09:22;;;;;;;1.65;1.00;;;14.60;91.60;;;;;;6129459;23;20009;-81
2022/10/22 08:11:49;;;;;;;2.30;0.88;;;14.70;91.50;;;;;;6103688;23;19997;-81
2022/10/22 08:14:15;;;;;;;1.23;0.90;;;14.80;91.50;;;;;;6103415;23;20386;-82
2022/10/22 08:16:41;;;;;;;1.45;0.80;;;14.80;91.40;;;;;;6103639;23;19998;-81
2022/10/22 08:19:06;;;;;;;2.22;1.05;;;14.90;91.40;;;;;;6154921;23;20013;-80
2022/10/22 08:21:32;;;;;;;1.70;1.15;;;14.90;91.30;;;;;;6129201;23;20049;-80
2022/10/22 08:23:58;;;;;;;2.00;1.00;;;15.10;91.30;;;;;;6127533;23;20009;-81
2022/10/22 08:26:24;;;;;;;1.70;0.90;;;15.00;91.20;;;;;;6103134;23;20006;-80
2022/10/22 08:29:01;;;;;;;2.65;0.85;;;15.10;91.10;;;;;;6102662;23;20044;-81
2022/10/22 08:31:27;;;;;;;2.65;1.10;;;15.20;91.10;;;;;;6128529;23;20081;-80
2022/10/22 08:33:55;;;;;;;2.13;0.88;;;15.20;91.10;;;;;;6060575;23;20033;-81
2022/10/22 08:36:21;;;;;;;1.80;1.00;;;15.30;91.10;;;;;;6063814;23;20551;-80
2022/10/22 08:38:47;;;;;;;1.55;0.85;;;15.30;91.10;;;;;;6011471;23;20015;-81
2022/10/22 08:41:16;;;;;;;2.20;0.88;;;15.30;91.00;;;;;;5987605;23;20346;-81
2022/10/22 08:44:06;;;;;;;0.85;0.60;;;15.40;91.00;;;;;;6011180;23;20014;-82
2022/10/22 08:46:54;;;;;;;0.68;0.60;;;15.40;91.00;;;;;;6010873;23;20051;-81
2022/10/22 08:49:24;;;;;;;1.23;0.60;;;15.40;91.00;;;;;;6011391;23;20020;-81
2022/10/22 08:51:50;;;;;;;1.45;0.63;;;15.50;91.00;;;;;;6035180;23;20429;-82
2022/10/22 08:54:42;;;;;;;1.35;0.80;;;15.50;90.90;;;;;;6010355;23;20015;-81
2022/10/22 08:57:22;;;;;;;1.88;0.80;;;15.60;90.90;;;;;;6035311;23;20011;-81
2022/10/22 09:00:11;;;;;;;2.03;0.82;;;15.70;90.90;;;;;;5987062;23;20011;-81
2022/10/22 09:03:01;;;;;;;0.90;0.60;;;15.70;90.80;;;;;;6034852;23;20015;-81
2022/10/22 09:05:46;;;;;;;1.30;0.70;;;15.80;90.80;;;;;;6011629;23;20356;-80
2022/10/22 09:08:13;;;;;;;2.10;0.70;;;15.70;90.80;;;;;;6097407;23;20061;-80
2022/10/22 09:10:46;;;;;;;1.50;0.80;;;15.70;90.80;;;;;;6152864;23;20005;-81
2022/10/22 09:13:17;;;;;;;1.70;0.70;;;15.80;90.70;;;;;;6104048;23;20010;-81
2022/10/22 09:15:49;;;;;;;1.33;0.68;;;15.80;90.80;;;;;;6127307;23;20006;-82
2022/10/22 09:18:37;;;;;;;2.10;0.50;;;15.70;90.80;;;;;;6103025;23;20012;-81
2022/10/22 09:21:30;;;;;;;2.00;0.70;;;15.80;90.80;;;;;;6130220;23;20001;-81
2022/10/22 09:24:08;;;;;;;2.85;0.80;;;15.80;90.80;;;;;;6153213;23;20056;-81
2022/10/22 09:26:37;;;;;;;0.70;0.50;;;15.70;90.90;;;;;;6162378;23;20029;-82
2022/10/22 09:29:04;;;;;;;1.02;0.63;;;15.70;90.90;;;;;;6153631;23;20020;-81
2022/10/22 09:31:31;;;;;;;1.92;0.80;;;15.70;91.00;;;;;;6103710;23;20088;-80
2022/10/22 09:33:58;;;;;;;1.58;0.60;;;15.60;91.00;;;;;;6127610;23;19998;-82
2022/10/22 09:36:27;;;;;;;0.50;0.50;;;15.60;91.00;;;;;;6124576;23;20041;-82
2022/10/22 09:38:53;;;;;;;0.50;0.43;;;15.60;91.00;;;;;;6126697;23;20010;-82
2022/10/22 09:41:22;;;;;;;2.08;0.40;;;15.70;91.10;;;;;;6102614;23;20064;-82
2022/10/22 09:43:49;;;;;;;0.82;0.50;;;15.60;91.10;;;;;;6153281;23;20132;-81
2022/10/22 09:46:17;;;;;;;2.08;0.70;;;15.70;91.10;;;;;;6103345;23;20005;-81
2022/10/22 09:48:50;;;;;;;0.82;0.50;;;15.70;91.10;;;;;;6153419;23;20020;-82
2022/10/22 09:51:21;;;;;;;0.30;0.30;;;15.70;91.10;;;;;;6153630;23;19998;-82
2022/10/22 09:53:57;;;;;;;1.33;0.60;;;15.70;91.00;;;;;;6074875;23;20006;-82
2022/10/22 09:56:27;;;;;;;0.88;0.50;;;15.80;91.00;;;;;;6127351;23;20945;-81
2022/10/22 09:58:56;;;;;;;2.40;0.47;;;15.90;91.00;;;;;;6126734;23;20025;-80
2022/10/22 10:01:38;;;;;;;0.95;0.57;;;15.80;90.90;;;;;;6102750;23;20020;-82
2022/10/22 10:04:06;;;;;;;2.92;1.00;;;16.00;90.90;;;;;;6127552;23;20009;-81
2022/10/22 10:06:34;;;;;;;0.98;0.70;;;15.90;90.80;;;;;;6103499;23;20411;-80
2022/10/22 10:09:04;;;;;;;1.77;0.80;;;15.90;90.70;;;;;;6115529;23;20018;-80
2022/10/22 10:11:45;;;;;;;1.77;0.68;;;16.00;90.70;;;;;;6095082;23;20033;-81
2022/10/22 10:14:34;;;;;;;0.70;0.60;;;16.00;90.70;;;;;;6139866;23;20037;-81
2022/10/22 10:17:21;;;;;;;2.03;0.80;;;16.00;90.70;;;;;;6145727;23;20008;-81
2022/10/22 10:19:59;;;;;;;2.25;0.90;;;16.00;90.70;;;;;;6139004;23;20009;-82
2022/10/22 10:22:42;;;;;;;1.13;0.63;;;16.10;90.70;;;;;;6159188;23;20008;-83
2022/10/22 10:25:25;;;;;;;0.75;0.55;;;16.10;90.70;;;;;;6116615;23;20010;-81
2022/10/22 10:28:19;;;;;;;2.42;0.70;;;16.00;90.60;;;;;;6133303;23;20006;-81
2022/10/22 10:31:08;;;;;;;0.93;0.70;;;16.20;90.60;;;;;;6159446;23;20033;-80
2022/10/22 10:33:56;;;;;;;0.68;0.50;;;16.20;90.60;;;;;;6110718;23;20060;-82
2022/10/22 10:36:38;;;;;;;0.93;0.70;;;16.20;90.60;;;;;;6110832;23;20029;-82
2022/10/22 10:39:11;;;;;;;0.70;0.50;;;16.30;90.60;;;;;;6132313;23;19998;-83
2022/10/22 10:41:55;;;;;;;1.85;0.50;;;16.20;90.60;;;;;;6081668;23;20375;-80
2022/10/22 10:44:59;;;;;;;2.15;0.80;;;16.30;90.60;;;;;;6079713;23;20006;-81
2022/10/22 10:47:59;;;;;;;0.88;0.70;;;16.20;90.50;;;;;;6157369;23;20123;-83
2022/10/22 10:51:00;;;;;;;0.85;0.50;;;16.40;90.60;;;;;;6129183;23;20021;-82
2022/10/22 10:53:41;;;;;;;1.08;0.60;;;16.50;90.50;;;;;;6133072;23;20009;-83
2022/10/22 10:56:29;;;;;;;1.05;0.60;;;16.50;90.40;;;;;;6112369;23;20013;-81
2022/10/22 10:59:13;;;;;;;1.20;0.70;;;16.50;90.40;;;;;;6135404;23;20062;-82
2022/10/22 11:02:05;;;;;;;1.20;0.77;;;16.60;90.60;;;;;;6160797;23;20013;-83
2022/10/22 11:04:55;;;;;;;2.08;0.85;;;16.70;90.30;;;;;;6135737;23;20515;-83
2022/10/22 11:07:27;;;;;;;1.65;0.95;;;16.70;90.30;;;;;;6138439;23;20032;-80
2022/10/22 11:10:01;;;;;;;1.63;0.95;;;16.70;90.30;;;;;;6136925;23;20426;-81
2022/10/22 11:12:35;;;;;;;1.33;0.77;;;16.70;90.20;;;;;;6134981;23;20076;-80
2022/10/22 11:15:08;;;;;;;2.08;1.00;;;16.70;90.10;;;;;;6155965;23;20009;-81
2022/10/22 11:17:40;;;;;;;2.25;1.02;;;16.70;90.10;;;;;;6159056;23;20016;-81
2022/10/22 11:20:20;;;;;;;2.30;0.98;;;16.90;90.10;;;;;;6132702;23;20006;-81
2022/10/22 11:22:54;;;;;;;1.20;0.93;;;17.00;90.00;;;;;;6158215;23;20018;-81
2022/10/22 11:25:25;;;;;;;1.73;0.63;;;17.10;90.00;;;;;;6109322;23;20056;-82
2022/10/22 11:27:52;;;;;;;;;;;17.20;89.80;;;;;;6131391;23;20378;-82
2022/10/22 11:30:20;;;;;;;2.22;0.70;;;17.20;89.50;;;;;;6154834;23;19975;-81
2022/10/22 11:32:52;;;;;;;1.42;0.80;;;17.30;89.40;;;;;;6128405;23;20100;-82
2022/10/22 11:35:24;;;;;;;0.88;0.65;;;17.30;89.30;;;;;;6156384;23;20136;-83
2022/10/22 11:37:51;;;;;;;2.17;0.90;;;17.30;89.80;;;;;;6157458;23;20011;-81
2022/10/22 11:40:29;;;;;;;2.25;1.00;;;17.40;89.00;;;;;;6155917;23;20020;-81
2022/10/22 11:43:04;;;;;;;2.95;0.98;;;17.40;88.90;;;;;;6129858;23;20010;-81
2022/10/22 11:45:34;;;;;;;1.70;0.73;;;17.40;88.90;;;;;;6155269;23;20000;-82
2022/10/22 11:48:16;;;;;;;0.93;0.52;;;17.50;88.80;;;;;;6129381;23;20013;-82
2022/10/22 11:50:56;;;;;;;1.30;0.80;;;17.40;88.70;;;;;;6107214;23;20005;-82
2022/10/22 11:53:34;;;;;;;2.50;0.90;;;17.60;88.60;;;;;;6159504;23;20164;-81
2022/10/22 11:56:21;;;;;;;0.63;0.57;;;17.60;88.60;;;;;;6101773;23;20242;-82
2022/10/22 11:58:48;;;;;;;3.25;0.73;;;17.50;88.60;;;;;;6133832;23;20010;-81
2022/10/22 12:01:22;;;;;;;1.17;0.63;;;17.70;88.80;;;;;;6128494;23;20448;-81
2022/10/22 12:03:51;;;;;;;2.85;0.80;;;17.60;88.30;;;;;;6131817;23;20012;-83
2022/10/22 12:06:21;;;;;;;2.38;0.90;;;17.60;88.10;;;;;;6128377;23;20063;-82
2022/10/22 12:08:58;;;;;;;1.33;0.70;;;17.70;88.30;;;;;;6105007;23;20097;-81
2022/10/22 12:11:39;;;;;;;0.85;0.60;;;17.60;88.20;;;;;;6128448;23;20020;-82
2022/10/22 12:14:23;;;;;;;1.48;0.65;;;17.60;88.40;;;;;;6128779;23;20001;-83
2022/10/22 12:16:56;;;;;;;0.40;0.40;;;17.50;88.60;;;;;;6153747;23;19994;-82
2022/10/22 12:19:29;;;;;;;1.05;0.55;;;17.60;88.80;;;;;;6079222;23;20078;-81
2022/10/22 12:22:18;;;;;;;1.27;0.50;;;17.70;88.60;;;;;;6103732;23;19997;-82
2022/10/22 12:24:52;;;;;;;1.25;0.60;;;17.80;88.20;;;;;;6153781;23;20005;-81
2022/10/22 12:27:26;;;;;;;1.58;0.63;;;17.80;88.00;;;;;;6153660;23;20311;-82
2022/10/22 12:29:55;;;;;;;2.97;0.60;;;17.80;87.90;;;;;;6101451;23;20339;-82
2022/10/22 12:32:21;;;;;;;2.20;0.70;;;17.80;87.90;;;;;;6124951;23;20013;-81
2022/10/22 12:34:49;;;;;;;1.10;0.52;;;17.70;87.90;;;;;;6127429;23;20349;-81
2022/10/22 12:37:18;;;;;;;0.57;0.50;;;17.70;88.10;;;;;;6127537;23;20032;-82
2022/10/22 12:39:45;;;;;;;2.35;0.63;;;17.60;88.10;;;;;;6126300;23;20009;-82
2022/10/22 12:42:14;;;;;;;1.85;0.50;;;17.60;88.20;;;;;;6103286;23;20044;-82
2022/10/22 12:44:40;;;;;;;0.93;0.52;;;17.60;88.30;;;;;;6127779;23;20010;-82
2022/10/22 12:47:07;;;;;;;0.40;0.40;;;17.70;88.50;;;;;;6127218;23;20438;-82
2022/10/22 12:49:38;;;;;;;0.80;0.50;;;17.60;88.40;;;;;;6154635;23;20014;-81
2022/10/22 12:52:07;;;;;;;2.13;0.63;;;17.70;88.60;;;;;;6129046;23;20012;-81
2022/10/22 12:54:34;;;;;;;1.75;0.75;;;17.70;88.30;;;;;;6154316;23;20060;-81
2022/10/22 12:57:00;;;;;;;2.30;0.70;;;17.90;88.00;;;;;;6153522;23;20492;-80
2022/10/22 12:59:36;;;;;;;0.65;0.55;;;17.90;87.70;;;;;;6153536;23;20010;-82
2022/10/22 13:02:14;;;;;;;0.88;0.57;;;17.90;87.50;;;;;;6102976;23;20009;-82
2022/10/22 13:04:40;;;;;;;0.75;0.55;;;17.90;87.40;;;;;;6130182;23;20029;-81
2022/10/22 13:07:17;;;;;;;1.73;0.73;;;17.80;87.50;;;;;;6122746;23;20014;-80